Portada
METAR-TAF:

METAR-TAF

Aeropuertos :

Aeropuerto de Orán Es Sénia

Orán, Argelia

latitud: 35-38N, longitud: 000-36W, altitud: 90 m

Observación

El informe se hizo hace 22 minutos, a las 16:30 UTC
Viento 13 kt del suroeste
Temperatura 16°C
Humedad 48%
Presión 1030 hPa
Visibilidad 10 km o más
sin nubes por debajo de 1500 m y sin presencia de cumulonimbus.

METAR: DAOO 171630Z 22013KT CAVOK 16/05 Q1030

Hora: 17:52 (16:52 UTC)

Pronóstico

El informe se hizo hace 5 horas y 52 minutos, a las 11:00 UTC
Pronóstico válido del 17 a las 12 UTC al 18 a las 12 UTC
Viento 8 kt del sur
Visibilidad 10 km o más
sin nubes por debajo de 1500 m y sin presencia de cumulonimbus.

TAF: DAOO 171100Z 1712/1812 18008KT CAVOK

Observaciones y pronósticos meteorológicos de más de 4000 aeropuertos (mensajes METAR y TAF).

Los puntos amarillos y rojos representan las estaciones disponibles.

Ponga el ratón en el punto deseado para ver el nombre de la estación.

Haga clic para ver las observaciones y los pronósticos meteorológicos.

Para cambiar el mapa : haga clic en los botones verdes con una cruz de color negro para hacer un zoom, en el botón verde con un guión para alejar o en las flechas verdes para mapas adyacentes.


METAR-TAF: